<?xml version="1.0" encoding="UTF-8" standalone="no" ?>
<gpx xmlns="http://www.topografix.com/GPX/1/1" creator="G7ToWin A.00.200f" version="1.1" xmlns:xsi="http://www.w3.org/2001/XMLSchema-instance" xsi:schemaLocation="http://www.topografix.com/GPX/1/1 http://www.topografix.com/GPX/1/1/gpx.xsd">

  <metadata>
    <link href="http://www.gpsinformation.org/ronh/g7towin.htm">
      <text>G7ToWin</text>
    </link>
    <time>2006-05-21T15:20:46Z</time>
    <bounds minlat="50.7915450" minlon="5.9006240" maxlat="51" maxlon="6"/>
  </metadata>

  <wpt lat="50.794727000" lon="5.922311000">
    <time>2002-12-31T23:02:44Z</time>
    <name>START</name>
    <cmt>MTBroute Mechelen</cmt>
    <desc>MTBroute Mechelen</desc>
    <sym>Waypoint</sym>
    <extensions>
      <gpxx:WaypointExtension xmlns:gpxx="http://www.garmin.com/xmlschemas/GpxExtensions/v2" xmlns:xsi="http://www.w3.org/2001/XMLSchema-instance" xsi:schemaLocation="http://www.garmin.com/xmlschemas/GpxExtensions/v2 http://www.garmin.com/xmlschemas/GpxExtensions/v2/GpxExtensionsv2.xsd">
        <gpxx:DisplayMode>SymbolAndName</gpxx:DisplayMode>
      </gpxx:WaypointExtension>
    </extensions>
  </wpt>

  <trk>
    <name>MTBroute Mechelen</name>
    <type>Track black</type>
    <extensions>
      <line xmlns="http://www.topografix.com/GPX/gpx_style/0/2">
        <color>000000</color>
      </line>
    </extensions>
    <trkseg>
      <trkpt lat="50.794750000" lon="5.922276000">
        <time>2002-12-31T23:00:01Z</time>
      </trkpt>
      <trkpt lat="50.794731000" lon="5.920787000">
        <time>2002-12-31T23:00:02Z</time>
      </trkpt>
      <trkpt lat="50.794895000" lon="5.919370000">
        <time>2002-12-31T23:00:03Z</time>
      </trkpt>
      <trkpt lat="50.794944000" lon="5.918732000">
        <time>2002-12-31T23:00:04Z</time>
      </trkpt>
      <trkpt lat="50.795574000" lon="5.918243000">
        <time>2002-12-31T23:00:05Z</time>
      </trkpt>
      <trkpt lat="50.796051000" lon="5.917575000">
        <time>2002-12-31T23:00:06Z</time>
      </trkpt>
      <trkpt lat="50.797466000" lon="5.917413000">
        <time>2002-12-31T23:00:07Z</time>
      </trkpt>
      <trkpt lat="50.798049000" lon="5.917810000">
        <time>2002-12-31T23:00:08Z</time>
      </trkpt>
      <trkpt lat="50.800712000" lon="5.915819000">
        <time>2002-12-31T23:00:09Z</time>
      </trkpt>
      <trkpt lat="50.801864000" lon="5.914661000">
        <time>2002-12-31T23:00:10Z</time>
      </trkpt>
      <trkpt lat="50.802604000" lon="5.914705000">
        <time>2002-12-31T23:00:11Z</time>
      </trkpt>
      <trkpt lat="50.803894000" lon="5.913123000">
        <time>2002-12-31T23:00:12Z</time>
      </trkpt>
      <trkpt lat="50.805446000" lon="5.912219000">
        <time>2002-12-31T23:00:13Z</time>
      </trkpt>
      <trkpt lat="50.806102000" lon="5.911836000">
        <ele>110.337601</ele>
        <time>2002-12-31T23:00:14Z</time>
      </trkpt>
      <trkpt lat="50.807140000" lon="5.910358000">
        <ele>106.680000</ele>
        <time>2002-12-31T23:00:15Z</time>
      </trkpt>
      <trkpt lat="50.807998000" lon="5.909835000">
        <ele>105.460800</ele>
        <time>2002-12-31T23:00:16Z</time>
      </trkpt>
      <trkpt lat="50.808380000" lon="5.909378000">
        <ele>104.546402</ele>
        <time>2002-12-31T23:00:17Z</time>
      </trkpt>
      <trkpt lat="50.809036000" lon="5.909208000">
        <ele>104.546402</ele>
        <time>2002-12-31T23:00:18Z</time>
      </trkpt>
      <trkpt lat="50.810119000" lon="5.908014000">
        <ele>103.022400</ele>
        <time>2002-12-31T23:00:19Z</time>
      </trkpt>
      <trkpt lat="50.810909000" lon="5.907172000">
        <ele>103.022400</ele>
        <time>2002-12-31T23:00:20Z</time>
      </trkpt>
      <trkpt lat="50.810722000" lon="5.908553000">
        <time>2002-12-31T23:00:21Z</time>
      </trkpt>
      <trkpt lat="50.809635000" lon="5.910740000">
        <ele>106.680000</ele>
        <time>2002-12-31T23:00:22Z</time>
      </trkpt>
      <trkpt lat="50.809452000" lon="5.911731000">
        <ele>107.899200</ele>
        <time>2002-12-31T23:00:23Z</time>
      </trkpt>
      <trkpt lat="50.809417000" lon="5.913753000">
        <ele>110.642403</ele>
        <time>2002-12-31T23:00:24Z</time>
      </trkpt>
      <trkpt lat="50.809143000" lon="5.915098000">
        <time>2002-12-31T23:00:25Z</time>
      </trkpt>
      <trkpt lat="50.807930000" lon="5.914907000">
        <ele>114.909599</ele>
        <time>2002-12-31T23:00:26Z</time>
      </trkpt>
      <trkpt lat="50.807273000" lon="5.916034000">
        <time>2002-12-31T23:00:27Z</time>
      </trkpt>
      <trkpt lat="50.806167000" lon="5.917086000">
        <time>2002-12-31T23:00:28Z</time>
      </trkpt>
      <trkpt lat="50.805492000" lon="5.917185000">
        <ele>125.272797</ele>
        <time>2002-12-31T23:00:29Z</time>
      </trkpt>
      <trkpt lat="50.805336000" lon="5.917325000">
        <ele>125.882401</ele>
        <time>2002-12-31T23:00:30Z</time>
      </trkpt>
      <trkpt lat="50.804565000" lon="5.918877000">
        <ele>129.844803</ele>
        <time>2002-12-31T23:00:31Z</time>
      </trkpt>
      <trkpt lat="50.804817000" lon="5.922533000">
        <time>2002-12-31T23:00:32Z</time>
      </trkpt>
      <trkpt lat="50.805927000" lon="5.924993000">
        <time>2002-12-31T23:00:33Z</time>
      </trkpt>
      <trkpt lat="50.806953000" lon="5.927097000">
        <time>2002-12-31T23:00:34Z</time>
      </trkpt>
      <trkpt lat="50.807846000" lon="5.928385000">
        <time>2002-12-31T23:00:35Z</time>
      </trkpt>
      <trkpt lat="50.807956000" lon="5.929202000">
        <time>2002-12-31T23:00:36Z</time>
      </trkpt>
      <trkpt lat="50.808017000" lon="5.929983000">
        <time>2002-12-31T23:00:37Z</time>
      </trkpt>
      <trkpt lat="50.808883000" lon="5.932086000">
        <time>2002-12-31T23:00:38Z</time>
      </trkpt>
      <trkpt lat="50.809780000" lon="5.933160000">
        <time>2002-12-31T23:00:39Z</time>
      </trkpt>
      <trkpt lat="50.810035000" lon="5.930929000">
        <time>2002-12-31T23:00:40Z</time>
      </trkpt>
      <trkpt lat="50.810367000" lon="5.932032000">
        <ele>134.721603</ele>
        <time>2002-12-31T23:00:41Z</time>
      </trkpt>
      <trkpt lat="50.810493000" lon="5.933914000">
        <time>2002-12-31T23:00:42Z</time>
      </trkpt>
      <trkpt lat="50.810417000" lon="5.935651000">
        <time>2002-12-31T23:00:43Z</time>
      </trkpt>
      <trkpt lat="50.810009000" lon="5.937171000">
        <ele>141.427200</ele>
        <time>2002-12-31T23:00:44Z</time>
      </trkpt>
      <trkpt lat="50.810005000" lon="5.937739000">
        <time>2002-12-31T23:00:45Z</time>
      </trkpt>
      <trkpt lat="50.810970000" lon="5.937750000">
        <time>2002-12-31T23:00:46Z</time>
      </trkpt>
      <trkpt lat="50.811847000" lon="5.938186000">
        <time>2002-12-31T23:00:47Z</time>
      </trkpt>
      <trkpt lat="50.811431000" lon="5.940097000">
        <time>2002-12-31T23:00:48Z</time>
      </trkpt>
      <trkpt lat="50.812644000" lon="5.940253000">
        <time>2002-12-31T23:00:49Z</time>
      </trkpt>
      <trkpt lat="50.813091000" lon="5.940578000">
        <ele>137.769592</ele>
        <time>2002-12-31T23:00:50Z</time>
      </trkpt>
      <trkpt lat="50.813835000" lon="5.940728000">
        <time>2002-12-31T23:00:51Z</time>
      </trkpt>
      <trkpt lat="50.815334000" lon="5.941704000">
        <time>2002-12-31T23:00:52Z</time>
      </trkpt>
      <trkpt lat="50.815914000" lon="5.942562000">
        <time>2002-12-31T23:00:53Z</time>
      </trkpt>
      <trkpt lat="50.816272000" lon="5.943063000">
        <time>2002-12-31T23:00:54Z</time>
      </trkpt>
      <trkpt lat="50.817485000" lon="5.943432000">
        <time>2002-12-31T23:00:55Z</time>
      </trkpt>
      <trkpt lat="50.817897000" lon="5.941592000">
        <time>2002-12-31T23:00:56Z</time>
      </trkpt>
      <trkpt lat="50.817981000" lon="5.937904000">
        <time>2002-12-31T23:00:57Z</time>
      </trkpt>
      <trkpt lat="50.817840000" lon="5.934390000">
        <time>2002-12-31T23:00:58Z</time>
      </trkpt>
      <trkpt lat="50.817852000" lon="5.932154000">
        <time>2002-12-31T23:00:59Z</time>
      </trkpt>
      <trkpt lat="50.818340000" lon="5.929073000">
        <ele>133.807205</ele>
        <time>2002-12-31T23:01:00Z</time>
      </trkpt>
      <trkpt lat="50.818607000" lon="5.924464000">
        <ele>132.892792</ele>
        <time>2002-12-31T23:01:01Z</time>
      </trkpt>
      <trkpt lat="50.819606000" lon="5.922028000">
        <ele>136.855194</ele>
        <time>2002-12-31T23:01:02Z</time>
      </trkpt>
      <trkpt lat="50.820014000" lon="5.921465000">
        <ele>138.379196</ele>
        <time>2002-12-31T23:01:03Z</time>
      </trkpt>
      <trkpt lat="50.820240000" lon="5.921467000">
        <time>2002-12-31T23:01:04Z</time>
      </trkpt>
      <trkpt lat="50.820240000" lon="5.921148000">
        <time>2002-12-31T23:01:05Z</time>
      </trkpt>
      <trkpt lat="50.820510000" lon="5.920832000">
        <time>2002-12-31T23:01:06Z</time>
      </trkpt>
      <trkpt lat="50.820869000" lon="5.916010000">
        <ele>139.293594</ele>
        <time>2002-12-31T23:01:07Z</time>
      </trkpt>
      <trkpt lat="50.820674000" lon="5.915050000">
        <time>2002-12-31T23:01:08Z</time>
      </trkpt>
      <trkpt lat="50.820636000" lon="5.913311000">
        <time>2002-12-31T23:01:09Z</time>
      </trkpt>
      <trkpt lat="50.820987000" lon="5.910157000">
        <time>2002-12-31T23:01:10Z</time>
      </trkpt>
      <trkpt lat="50.821060000" lon="5.908952000">
        <time>2002-12-31T23:01:11Z</time>
      </trkpt>
      <trkpt lat="50.821445000" lon="5.908424000">
        <time>2002-12-31T23:01:12Z</time>
      </trkpt>
      <trkpt lat="50.820869000" lon="5.906537000">
        <time>2002-12-31T23:01:13Z</time>
      </trkpt>
      <trkpt lat="50.820877000" lon="5.904692000">
        <time>2002-12-31T23:01:14Z</time>
      </trkpt>
      <trkpt lat="50.820396000" lon="5.901068000">
        <time>2002-12-31T23:01:15Z</time>
      </trkpt>
      <trkpt lat="50.820579000" lon="5.900751000">
        <ele>101.193596</ele>
        <time>2002-12-31T23:01:16Z</time>
      </trkpt>
      <trkpt lat="50.821994000" lon="5.900624000">
        <ele>105.155998</ele>
        <time>2002-12-31T23:01:17Z</time>
      </trkpt>
      <trkpt lat="50.823162000" lon="5.901311000">
        <time>2002-12-31T23:01:18Z</time>
      </trkpt>
      <trkpt lat="50.825008000" lon="5.905306000">
        <time>2002-12-31T23:01:19Z</time>
      </trkpt>
      <trkpt lat="50.826164000" lon="5.908583000">
        <time>2002-12-31T23:01:20Z</time>
      </trkpt>
      <trkpt lat="50.826740000" lon="5.910399000">
        <time>2002-12-31T23:01:21Z</time>
      </trkpt>
      <trkpt lat="50.827030000" lon="5.910722000">
        <time>2002-12-31T23:01:22Z</time>
      </trkpt>
      <trkpt lat="50.827026000" lon="5.911467000">
        <time>2002-12-31T23:01:23Z</time>
      </trkpt>
      <trkpt lat="50.827491000" lon="5.913069000">
        <time>2002-12-31T23:01:24Z</time>
      </trkpt>
      <trkpt lat="50.828758000" lon="5.916312000">
        <time>2002-12-31T23:01:25Z</time>
      </trkpt>
      <trkpt lat="50.829719000" lon="5.917281000">
        <ele>140.207993</ele>
        <time>2002-12-31T23:01:26Z</time>
      </trkpt>
      <trkpt lat="50.829334000" lon="5.917987000">
        <ele>139.293594</ele>
        <time>2002-12-31T23:01:27Z</time>
      </trkpt>
      <trkpt lat="50.829643000" lon="5.919303000">
        <ele>138.379196</ele>
        <time>2002-12-31T23:01:28Z</time>
      </trkpt>
      <trkpt lat="50.829681000" lon="5.920475000">
        <time>2002-12-31T23:01:29Z</time>
      </trkpt>
      <trkpt lat="50.829559000" lon="5.922709000">
        <time>2002-12-31T23:01:30Z</time>
      </trkpt>
      <trkpt lat="50.832103000" lon="5.922312000">
        <time>2002-12-31T23:01:31Z</time>
      </trkpt>
      <trkpt lat="50.832168000" lon="5.922810000">
        <time>2002-12-31T23:01:32Z</time>
      </trkpt>
      <trkpt lat="50.833526000" lon="5.925807000">
        <time>2002-12-31T23:01:33Z</time>
      </trkpt>
      <trkpt lat="50.837749000" lon="5.930505000">
        <time>2002-12-31T23:01:34Z</time>
      </trkpt>
      <trkpt lat="50.837856000" lon="5.931855000">
        <time>2002-12-31T23:01:35Z</time>
      </trkpt>
      <trkpt lat="50.838729000" lon="5.932326000">
        <time>2002-12-31T23:01:36Z</time>
      </trkpt>
      <trkpt lat="50.839202000" lon="5.932509000">
        <time>2002-12-31T23:01:37Z</time>
      </trkpt>
      <trkpt lat="50.839603000" lon="5.933188000">
        <time>2002-12-31T23:01:38Z</time>
      </trkpt>
      <trkpt lat="50.840461000" lon="5.937564000">
        <time>2002-12-31T23:01:39Z</time>
      </trkpt>
      <trkpt lat="50.840274000" lon="5.938734000">
        <time>2002-12-31T23:01:40Z</time>
      </trkpt>
      <trkpt lat="50.840305000" lon="5.941254000">
        <time>2002-12-31T23:01:41Z</time>
      </trkpt>
      <trkpt lat="50.839641000" lon="5.944015000">
        <ele>162.458405</ele>
        <time>2002-12-31T23:01:42Z</time>
      </trkpt>
      <trkpt lat="50.839054000" lon="5.944718000">
        <ele>161.848801</ele>
        <time>2002-12-31T23:01:43Z</time>
      </trkpt>
      <trkpt lat="50.838531000" lon="5.946380000">
        <time>2002-12-31T23:01:44Z</time>
      </trkpt>
      <trkpt lat="50.837654000" lon="5.946334000">
        <time>2002-12-31T23:01:45Z</time>
      </trkpt>
      <trkpt lat="50.834350000" lon="5.946543000">
        <ele>149.047195</ele>
        <time>2002-12-31T23:01:46Z</time>
      </trkpt>
      <trkpt lat="50.833202000" lon="5.946600000">
        <ele>145.084793</ele>
        <time>2002-12-31T23:01:47Z</time>
      </trkpt>
      <trkpt lat="50.832393000" lon="5.946342000">
        <ele>142.951202</ele>
        <time>2002-12-31T23:01:48Z</time>
      </trkpt>
      <trkpt lat="50.831245000" lon="5.946577000">
        <time>2002-12-31T23:01:49Z</time>
      </trkpt>
      <trkpt lat="50.829181000" lon="5.945913000">
        <ele>140.207993</ele>
        <time>2002-12-31T23:01:50Z</time>
      </trkpt>
      <trkpt lat="50.827358000" lon="5.946850000">
        <ele>144.170395</ele>
        <time>2002-12-31T23:01:51Z</time>
      </trkpt>
      <trkpt lat="50.825782000" lon="5.947150000">
        <time>2002-12-31T23:01:52Z</time>
      </trkpt>
      <trkpt lat="50.824951000" lon="5.946679000">
        <ele>153.314392</ele>
        <time>2002-12-31T23:01:53Z</time>
      </trkpt>
      <trkpt lat="50.824821000" lon="5.946216000">
        <time>2002-12-31T23:01:54Z</time>
      </trkpt>
      <trkpt lat="50.824485000" lon="5.945893000">
        <time>2002-12-31T23:01:55Z</time>
      </trkpt>
      <trkpt lat="50.823093000" lon="5.945770000">
        <time>2002-12-31T23:01:56Z</time>
      </trkpt>
      <trkpt lat="50.822967000" lon="5.948004000">
        <ele>160.324799</ele>
        <time>2002-12-31T23:01:57Z</time>
      </trkpt>
      <trkpt lat="50.823410000" lon="5.949677000">
        <time>2002-12-31T23:01:58Z</time>
      </trkpt>
      <trkpt lat="50.823341000" lon="5.950208000">
        <time>2002-12-31T23:01:59Z</time>
      </trkpt>
      <trkpt lat="50.822528000" lon="5.950766000">
        <time>2002-12-31T23:02:00Z</time>
      </trkpt>
      <trkpt lat="50.820838000" lon="5.951810000">
        <time>2002-12-31T23:02:01Z</time>
      </trkpt>
      <trkpt lat="50.820137000" lon="5.952724000">
        <time>2002-12-31T23:02:02Z</time>
      </trkpt>
      <trkpt lat="50.819072000" lon="5.954130000">
        <time>2002-12-31T23:02:03Z</time>
      </trkpt>
      <trkpt lat="50.817783000" lon="5.951028000">
        <time>2002-12-31T23:02:04Z</time>
      </trkpt>
      <trkpt lat="50.817031000" lon="5.948749000">
        <ele>164.591995</ele>
        <time>2002-12-31T23:02:05Z</time>
      </trkpt>
      <trkpt lat="50.815105000" lon="5.947342000">
        <time>2002-12-31T23:02:06Z</time>
      </trkpt>
      <trkpt lat="50.813758000" lon="5.947503000">
        <time>2002-12-31T23:02:07Z</time>
      </trkpt>
      <trkpt lat="50.813327000" lon="5.947817000">
        <ele>153.619202</ele>
        <time>2002-12-31T23:02:08Z</time>
      </trkpt>
      <trkpt lat="50.812126000" lon="5.950073000">
        <time>2002-12-31T23:02:09Z</time>
      </trkpt>
      <trkpt lat="50.811271000" lon="5.950560000">
        <ele>151.180801</ele>
        <time>2002-12-31T23:02:10Z</time>
      </trkpt>
      <trkpt lat="50.810295000" lon="5.952605000">
        <time>2002-12-31T23:02:11Z</time>
      </trkpt>
      <trkpt lat="50.809711000" lon="5.952244000">
        <time>2002-12-31T23:02:12Z</time>
      </trkpt>
      <trkpt lat="50.808834000" lon="5.952162000">
        <time>2002-12-31T23:02:13Z</time>
      </trkpt>
      <trkpt lat="50.808216000" lon="5.954602000">
        <time>2002-12-31T23:02:14Z</time>
      </trkpt>
      <trkpt lat="50.807331000" lon="5.956294000">
        <time>2002-12-31T23:02:15Z</time>
      </trkpt>
      <trkpt lat="50.806793000" lon="5.955933000">
        <time>2002-12-31T23:02:16Z</time>
      </trkpt>
      <trkpt lat="50.805522000" lon="5.954037000">
        <time>2002-12-31T23:02:17Z</time>
      </trkpt>
      <trkpt lat="50.804245000" lon="5.953171000">
        <time>2002-12-31T23:02:18Z</time>
      </trkpt>
      <trkpt lat="50.803730000" lon="5.952633000">
        <time>2002-12-31T23:02:19Z</time>
      </trkpt>
      <trkpt lat="50.801605000" lon="5.950940000">
        <ele>143.255997</ele>
        <time>2002-12-31T23:02:20Z</time>
      </trkpt>
      <trkpt lat="50.800827000" lon="5.948980000">
        <time>2002-12-31T23:02:21Z</time>
      </trkpt>
      <trkpt lat="50.801666000" lon="5.946969000">
        <ele>151.180801</ele>
        <time>2002-12-31T23:02:22Z</time>
      </trkpt>
      <trkpt lat="50.802265000" lon="5.944493000">
        <time>2002-12-31T23:02:23Z</time>
      </trkpt>
      <trkpt lat="50.802749000" lon="5.942016000">
        <ele>158.191193</ele>
        <time>2002-12-31T23:02:24Z</time>
      </trkpt>
      <trkpt lat="50.803222000" lon="5.941064000">
        <ele>158.800797</ele>
        <time>2002-12-31T23:02:25Z</time>
      </trkpt>
      <trkpt lat="50.801338000" lon="5.940226000">
        <time>2002-12-31T23:02:26Z</time>
      </trkpt>
      <trkpt lat="50.800308000" lon="5.939824000">
        <ele>160.324799</ele>
        <time>2002-12-31T23:02:27Z</time>
      </trkpt>
      <trkpt lat="50.798736000" lon="5.939841000">
        <time>2002-12-31T23:02:28Z</time>
      </trkpt>
      <trkpt lat="50.797473000" lon="5.940819000">
        <time>2002-12-31T23:02:29Z</time>
      </trkpt>
      <trkpt lat="50.796505000" lon="5.941091000">
        <time>2002-12-31T23:02:30Z</time>
      </trkpt>
      <trkpt lat="50.795177000" lon="5.941501000">
        <time>2002-12-31T23:02:31Z</time>
      </trkpt>
      <trkpt lat="50.794479000" lon="5.941280000">
        <time>2002-12-31T23:02:32Z</time>
      </trkpt>
      <trkpt lat="50.791545000" lon="5.939472000">
        <ele>162.153595</ele>
        <time>2002-12-31T23:02:33Z</time>
      </trkpt>
      <trkpt lat="50.792541000" lon="5.937888000">
        <time>2002-12-31T23:02:34Z</time>
      </trkpt>
      <trkpt lat="50.793113000" lon="5.935413000">
        <time>2002-12-31T23:02:35Z</time>
      </trkpt>
      <trkpt lat="50.793052000" lon="5.934171000">
        <time>2002-12-31T23:02:36Z</time>
      </trkpt>
      <trkpt lat="50.793132000" lon="5.931690000">
        <time>2002-12-31T23:02:37Z</time>
      </trkpt>
      <trkpt lat="50.793407000" lon="5.930275000">
        <time>2002-12-31T23:02:38Z</time>
      </trkpt>
      <trkpt lat="50.793064000" lon="5.926689000">
        <time>2002-12-31T23:02:39Z</time>
      </trkpt>
      <trkpt lat="50.793136000" lon="5.925662000">
        <time>2002-12-31T23:02:40Z</time>
      </trkpt>
      <trkpt lat="50.793640000" lon="5.924214000">
        <time>2002-12-31T23:02:41Z</time>
      </trkpt>
      <trkpt lat="50.793960000" lon="5.923083000">
        <time>2002-12-31T23:02:42Z</time>
      </trkpt>
      <trkpt lat="50.794433000" lon="5.922343000">
        <time>2002-12-31T23:02:43Z</time>
      </trkpt>
      <trkpt lat="50.794727000" lon="5.922311000">
        <time>2002-12-31T23:02:44Z</time>
      </trkpt>
    </trkseg>
  </trk>
</gpx>
